sensor_id;sensor_type;location;lat;lon;timestamp;temperature;humidity
67249;SHT31;54162;54.300;18.592;2022-08-11T00:00:09;13.82;95.46
67249;SHT31;54162;54.300;18.592;2022-08-11T00:02:51;13.77;95.74
67249;SHT31;54162;54.300;18.592;2022-08-11T00:05:19;13.96;95.58
67249;SHT31;54162;54.300;18.592;2022-08-11T00:07:51;14.06;95.50
67249;SHT31;54162;54.300;18.592;2022-08-11T00:10:20;14.16;95.30
67249;SHT31;54162;54.300;18.592;2022-08-11T00:12:59;14.02;95.40
67249;SHT31;54162;54.300;18.592;2022-08-11T00:15:28;13.94;95.70
67249;SHT31;54162;54.300;18.592;2022-08-11T00:18:01;13.82;95.94
67249;SHT31;54162;54.300;18.592;2022-08-11T00:20:32;13.89;96.27
67249;SHT31;54162;54.300;18.592;2022-08-11T00:23:13;14.06;96.13
67249;SHT31;54162;54.300;18.592;2022-08-11T00:25:43;14.09;96.18
67249;SHT31;54162;54.300;18.592;2022-08-11T00:28:30;14.04;96.09
67249;SHT31;54162;54.300;18.592;2022-08-11T00:31:03;14.26;96.00
67249;SHT31;54162;54.300;18.592;2022-08-11T00:33:48;14.26;96.16
67249;SHT31;54162;54.300;18.592;2022-08-11T00:36:17;14.46;96.08
67249;SHT31;54162;54.300;18.592;2022-08-11T00:38:44;14.38;96.12
67249;SHT31;54162;54.300;18.592;2022-08-11T00:52:16;14.57;96.44
67249;SHT31;54162;54.300;18.592;2022-08-11T01:00:25;14.75;96.90
67249;SHT31;54162;54.300;18.592;2022-08-11T01:06:01;14.70;96.94
67249;SHT31;54162;54.300;18.592;2022-08-11T01:30:54;13.47;96.93
67249;SHT31;54162;54.300;18.592;2022-08-11T01:48:07;13.14;97.17
67249;SHT31;54162;54.300;18.592;2022-08-11T01:56:52;13.07;97.25
67249;SHT31;54162;54.300;18.592;2022-08-11T01:59:30;13.09;97.32
67249;SHT31;54162;54.300;18.592;2022-08-11T02:05:19;13.19;97.43
67249;SHT31;54162;54.300;18.592;2022-08-11T02:13:45;13.20;97.67
67249;SHT31;54162;54.300;18.592;2022-08-11T02:21:59;13.30;97.85
67249;SHT31;54162;54.300;18.592;2022-08-11T02:24:59;13.26;97.77
67249;SHT31;54162;54.300;18.592;2022-08-11T02:27:33;13.19;97.67
67249;SHT31;54162;54.300;18.592;2022-08-11T02:30:05;13.19;97.59
67249;SHT31;54162;54.300;18.592;2022-08-11T02:35:46;13.06;97.75
67249;SHT31;54162;54.300;18.592;2022-08-11T02:40:48;13.02;97.88
67249;SHT31;54162;54.300;18.592;2022-08-11T02:46:36;13.03;97.87
67249;SHT31;54162;54.300;18.592;2022-08-11T02:49:25;12.97;97.91
67249;SHT31;54162;54.300;18.592;2022-08-11T02:52:19;12.95;97.97
67249;SHT31;54162;54.300;18.592;2022-08-11T02:57:42;12.92;98.03
67249;SHT31;54162;54.300;18.592;2022-08-11T03:00:14;12.93;97.99
67249;SHT31;54162;54.300;18.592;2022-08-11T03:13:52;13.14;98.09
67249;SHT31;54162;54.300;18.592;2022-08-11T03:16:53;13.12;98.04
67249;SHT31;54162;54.300;18.592;2022-08-11T03:25:07;13.23;98.02
67249;SHT31;54162;54.300;18.592;2022-08-11T03:33:14;13.62;97.71
67249;SHT31;54162;54.300;18.592;2022-08-11T03:36:22;13.83;97.27
67249;SHT31;54162;54.300;18.592;2022-08-11T03:49:39;14.87;94.59
67249;SHT31;54162;54.300;18.592;2022-08-11T04:03:59;16.45;92.93
67249;SHT31;54162;54.300;18.592;2022-08-11T04:10:05;17.13;90.76
67249;SHT31;54162;54.300;18.592;2022-08-11T04:15:36;17.86;89.04
67249;SHT31;54162;54.300;18.592;2022-08-11T04:24:31;19.10;84.19
67249;SHT31;54162;54.300;18.592;2022-08-11T05:04:40;23.19;71.01
67249;SHT31;54162;54.300;18.592;2022-08-11T05:13:06;23.55;69.02
67249;SHT31;54162;54.300;18.592;2022-08-11T05:15:58;23.67;68.34
67249;SHT31;54162;54.300;18.592;2022-08-11T05:18:50;23.82;68.08
67249;SHT31;54162;54.300;18.592;2022-08-11T05:21:37;24.32;66.14
67249;SHT31;54162;54.300;18.592;2022-08-11T05:24:25;24.35;65.68
67249;SHT31;54162;54.300;18.592;2022-08-11T05:27:14;24.80;64.97
67249;SHT31;54162;54.300;18.592;2022-08-11T05:30:04;24.68;66.09
67249;SHT31;54162;54.300;18.592;2022-08-11T05:33:02;25.49;62.56
67249;SHT31;54162;54.300;18.592;2022-08-11T05:35:49;25.59;61.83
67249;SHT31;54162;54.300;18.592;2022-08-11T05:38:23;25.36;63.81
67249;SHT31;54162;54.300;18.592;2022-08-11T05:41:10;25.73;63.21
67249;SHT31;54162;54.300;18.592;2022-08-11T05:43:57;25.54;62.04
67249;SHT31;54162;54.300;18.592;2022-08-11T05:46:43;25.01;64.91
67249;SHT31;54162;54.300;18.592;2022-08-11T05:49:32;26.04;61.69
67249;SHT31;54162;54.300;18.592;2022-08-11T05:52:20;25.80;63.11
67249;SHT31;54162;54.300;18.592;2022-08-11T05:55:06;25.94;62.02
67249;SHT31;54162;54.300;18.592;2022-08-11T05:57:58;26.42;61.24
67249;SHT31;54162;54.300;18.592;2022-08-11T06:00:25;26.02;62.53
67249;SHT31;54162;54.300;18.592;2022-08-11T06:02:53;26.01;62.96
67249;SHT31;54162;54.300;18.592;2022-08-11T06:05:20;26.45;61.29
67249;SHT31;54162;54.300;18.592;2022-08-11T06:07:47;26.71;61.25
67249;SHT31;54162;54.300;18.592;2022-08-11T06:10:13;26.85;61.14
67249;SHT31;54162;54.300;18.592;2022-08-11T06:12:52;26.76;60.01
67249;SHT31;54162;54.300;18.592;2022-08-11T06:15:19;27.06;57.59
67249;SHT31;54162;54.300;18.592;2022-08-11T06:17:45;28.32;54.08
67249;SHT31;54162;54.300;18.592;2022-08-11T06:20:12;28.43;53.41
67249;SHT31;54162;54.300;18.592;2022-08-11T06:22:44;28.43;53.67
67249;SHT31;54162;54.300;18.592;2022-08-11T06:25:13;28.19;54.50
67249;SHT31;54162;54.300;18.592;2022-08-11T06:27:41;28.67;53.90
67249;SHT31;54162;54.300;18.592;2022-08-11T06:30:08;28.29;54.83
67249;SHT31;54162;54.300;18.592;2022-08-11T06:32:41;28.49;53.32
67249;SHT31;54162;54.300;18.592;2022-08-11T06:35:24;27.35;55.95
67249;SHT31;54162;54.300;18.592;2022-08-11T06:38:10;29.12;51.41
67249;SHT31;54162;54.300;18.592;2022-08-11T06:43:51;28.53;54.09
67249;SHT31;54162;54.300;18.592;2022-08-11T06:46:39;29.54;51.17
67249;SHT31;54162;54.300;18.592;2022-08-11T06:49:11;29.76;49.36
67249;SHT31;54162;54.300;18.592;2022-08-11T06:52:01;29.70;50.43
67249;SHT31;54162;54.300;18.592;2022-08-11T06:54:33;29.25;51.62
67249;SHT31;54162;54.300;18.592;2022-08-11T06:56:59;28.61;52.86
67249;SHT31;54162;54.300;18.592;2022-08-11T06:59:44;28.27;53.78
67249;SHT31;54162;54.300;18.592;2022-08-11T07:02:59;29.08;53.07
67249;SHT31;54162;54.300;18.592;2022-08-11T07:13:58;29.19;51.00
67249;SHT31;54162;54.300;18.592;2022-08-11T07:16:44;30.59;48.62
67249;SHT31;54162;54.300;18.592;2022-08-11T07:19:14;31.41;46.11
67249;SHT31;54162;54.300;18.592;2022-08-11T07:22:01;30.05;49.16
67249;SHT31;54162;54.300;18.592;2022-08-11T07:27:45;29.23;50.34
67249;SHT31;54162;54.300;18.592;2022-08-11T07:30:39;28.49;49.14
67249;SHT31;54162;54.300;18.592;2022-08-11T07:33:06;30.12;48.15
67249;SHT31;54162;54.300;18.592;2022-08-11T07:35:35;30.55;47.67
67249;SHT31;54162;54.300;18.592;2022-08-11T07:38:07;29.19;50.01
67249;SHT31;54162;54.300;18.592;2022-08-11T07:40:36;29.36;49.13
67249;SHT31;54162;54.300;18.592;2022-08-11T07:43:03;31.41;46.24
67249;SHT31;54162;54.300;18.592;2022-08-11T07:45:30;29.67;50.22
67249;SHT31;54162;54.300;18.592;2022-08-11T07:48:15;29.25;50.67
67249;SHT31;54162;54.300;18.592;2022-08-11T07:51:00;28.47;51.60
67249;SHT31;54162;54.300;18.592;2022-08-11T07:53:46;30.58;48.90
67249;SHT31;54162;54.300;18.592;2022-08-11T07:56:13;31.68;45.28
67249;SHT31;54162;54.300;18.592;2022-08-11T07:58:40;30.24;47.29
67249;SHT31;54162;54.300;18.592;2022-08-11T08:01:26;30.36;47.02
67249;SHT31;54162;54.300;18.592;2022-08-11T08:04:12;32.74;43.00
67249;SHT31;54162;54.300;18.592;2022-08-11T08:06:58;31.57;44.57
67249;SHT31;54162;54.300;18.592;2022-08-11T08:09:44;30.93;47.20
67249;SHT31;54162;54.300;18.592;2022-08-11T08:12:29;31.45;46.24
67249;SHT31;54162;54.300;18.592;2022-08-11T08:15:14;31.69;45.43
67249;SHT31;54162;54.300;18.592;2022-08-11T08:18:02;31.24;45.88
67249;SHT31;54162;54.300;18.592;2022-08-11T08:20:31;35.29;38.92
67249;SHT31;54162;54.300;18.592;2022-08-11T08:23:01;34.89;39.42
67249;SHT31;54162;54.300;18.592;2022-08-11T08:25:32;35.61;39.27
67249;SHT31;54162;54.300;18.592;2022-08-11T08:28:00;35.51;39.65
67249;SHT31;54162;54.300;18.592;2022-08-11T08:30:27;34.38;41.80
67249;SHT31;54162;54.300;18.592;2022-08-11T08:35:48;35.58;39.92
67249;SHT31;54162;54.300;18.592;2022-08-11T08:38:15;32.94;43.84
67249;SHT31;54162;54.300;18.592;2022-08-11T08:40:42;35.07;40.54
67249;SHT31;54162;54.300;18.592;2022-08-11T08:43:14;33.86;42.76
67249;SHT31;54162;54.300;18.592;2022-08-11T08:45:42;32.92;45.42
67249;SHT31;54162;54.300;18.592;2022-08-11T08:48:14;32.20;45.45
67249;SHT31;54162;54.300;18.592;2022-08-11T08:50:51;30.36;49.84
67249;SHT31;54162;54.300;18.592;2022-08-11T08:53:39;31.95;46.46
67249;SHT31;54162;54.300;18.592;2022-08-11T08:56:06;33.28;44.47
67249;SHT31;54162;54.300;18.592;2022-08-11T08:58:35;36.26;40.68
67249;SHT31;54162;54.300;18.592;2022-08-11T09:01:02;33.92;41.33
67249;SHT31;54162;54.300;18.592;2022-08-11T09:03:28;31.31;46.30
67249;SHT31;54162;54.300;18.592;2022-08-11T09:05:55;32.17;45.29
67249;SHT31;54162;54.300;18.592;2022-08-11T09:08:22;33.30;43.90
67249;SHT31;54162;54.300;18.592;2022-08-11T09:10:49;34.10;41.14
67249;SHT31;54162;54.300;18.592;2022-08-11T09:13:35;29.12;47.24
67249;SHT31;54162;54.300;18.592;2022-08-11T09:16:04;31.38;45.71
67249;SHT31;54162;54.300;18.592;2022-08-11T09:18:30;30.83;47.48
67249;SHT31;54162;54.300;18.592;2022-08-11T09:20:56;31.08;47.03
67249;SHT31;54162;54.300;18.592;2022-08-11T09:23:22;31.37;45.85
67249;SHT31;54162;54.300;18.592;2022-08-11T09:26:08;32.32;43.93
67249;SHT31;54162;54.300;18.592;2022-08-11T09:28:53;30.78;46.77
67249;SHT31;54162;54.300;18.592;2022-08-11T09:31:20;31.95;43.96
67249;SHT31;54162;54.300;18.592;2022-08-11T09:33:50;31.33;44.28
67249;SHT31;54162;54.300;18.592;2022-08-11T09:36:17;33.43;41.28
67249;SHT31;54162;54.300;18.592;2022-08-11T09:39:03;33.46;40.48
67249;SHT31;54162;54.300;18.592;2022-08-11T09:41:48;32.08;43.11
67249;SHT31;54162;54.300;18.592;2022-08-11T09:44:14;29.64;43.96
67249;SHT31;54162;54.300;18.592;2022-08-11T09:46:59;30.59;41.34
67249;SHT31;54162;54.300;18.592;2022-08-11T09:49:25;30.65;41.62
67249;SHT31;54162;54.300;18.592;2022-08-11T09:51:52;29.57;42.75
67249;SHT31;54162;54.300;18.592;2022-08-11T09:54:18;30.14;42.98
67249;SHT31;54162;54.300;18.592;2022-08-11T09:56:44;30.56;39.55
67249;SHT31;54162;54.300;18.592;2022-08-11T09:59:29;31.62;37.73
67249;SHT31;54162;54.300;18.592;2022-08-11T10:01:59;31.66;39.40
67249;SHT31;54162;54.300;18.592;2022-08-11T10:04:39;29.80;41.38
67249;SHT31;54162;54.300;18.592;2022-08-11T10:07:06;28.05;43.50
67249;SHT31;54162;54.300;18.592;2022-08-11T10:09:41;27.91;44.34
67249;SHT31;54162;54.300;18.592;2022-08-11T10:14:57;26.00;47.65
67249;SHT31;54162;54.300;18.592;2022-08-11T10:17:46;26.90;45.82
67249;SHT31;54162;54.300;18.592;2022-08-11T10:20:34;26.41;43.90
67249;SHT31;54162;54.300;18.592;2022-08-11T10:23:01;26.51;45.03
67249;SHT31;54162;54.300;18.592;2022-08-11T10:25:45;26.16;41.51
67249;SHT31;54162;54.300;18.592;2022-08-11T10:28:30;26.47;43.56
67249;SHT31;54162;54.300;18.592;2022-08-11T10:30:56;26.90;41.59
67249;SHT31;54162;54.300;18.592;2022-08-11T10:33:41;26.60;41.56
67249;SHT31;54162;54.300;18.592;2022-08-11T10:36:33;25.94;42.25
67249;SHT31;54162;54.300;18.592;2022-08-11T10:39:01;26.71;43.19
67249;SHT31;54162;54.300;18.592;2022-08-11T10:41:27;27.51;41.59
67249;SHT31;54162;54.300;18.592;2022-08-11T10:44:12;25.45;39.47
67249;SHT31;54162;54.300;18.592;2022-08-11T10:46:38;25.45;41.88
67249;SHT31;54162;54.300;18.592;2022-08-11T10:49:24;26.14;42.21
67249;SHT31;54162;54.300;18.592;2022-08-11T10:51:52;25.84;39.00
67249;SHT31;54162;54.300;18.592;2022-08-11T10:54:39;25.76;40.77
67249;SHT31;54162;54.300;18.592;2022-08-11T10:57:24;25.98;39.82
67249;SHT31;54162;54.300;18.592;2022-08-11T11:00:09;26.20;38.61
67249;SHT31;54162;54.300;18.592;2022-08-11T11:02:43;25.39;37.28
67249;SHT31;54162;54.300;18.592;2022-08-11T11:05:14;25.45;36.31
67249;SHT31;54162;54.300;18.592;2022-08-11T11:07:46;25.33;38.87
67249;SHT31;54162;54.300;18.592;2022-08-11T11:10:14;25.26;41.52
67249;SHT31;54162;54.300;18.592;2022-08-11T11:12:51;25.49;39.91
67249;SHT31;54162;54.300;18.592;2022-08-11T11:15:39;25.65;39.04
67249;SHT31;54162;54.300;18.592;2022-08-11T11:18:26;26.29;40.14
67249;SHT31;54162;54.300;18.592;2022-08-11T11:21:06;26.00;39.71
67249;SHT31;54162;54.300;18.592;2022-08-11T11:23:48;24.63;37.47
67249;SHT31;54162;54.300;18.592;2022-08-11T11:37:32;24.70;42.60
67249;SHT31;54162;54.300;18.592;2022-08-11T11:39:59;24.99;43.48
67249;SHT31;54162;54.300;18.592;2022-08-11T11:42:26;24.75;43.01
67249;SHT31;54162;54.300;18.592;2022-08-11T11:44:52;24.47;43.20
67249;SHT31;54162;54.300;18.592;2022-08-11T11:47:19;25.05;44.50
67249;SHT31;54162;54.300;18.592;2022-08-11T11:49:46;24.67;43.96
67249;SHT31;54162;54.300;18.592;2022-08-11T11:52:15;24.35;45.14
67249;SHT31;54162;54.300;18.592;2022-08-11T11:54:44;24.98;43.76
67249;SHT31;54162;54.300;18.592;2022-08-11T11:57:11;24.47;43.14
67249;SHT31;54162;54.300;18.592;2022-08-11T11:59:57;24.39;40.40
67249;SHT31;54162;54.300;18.592;2022-08-11T12:02:42;24.27;42.97
67249;SHT31;54162;54.300;18.592;2022-08-11T12:05:09;24.25;43.63
67249;SHT31;54162;54.300;18.592;2022-08-11T12:07:35;24.36;46.28
67249;SHT31;54162;54.300;18.592;2022-08-11T12:10:20;24.09;43.68
67249;SHT31;54162;54.300;18.592;2022-08-11T12:12:47;24.36;45.34
67249;SHT31;54162;54.300;18.592;2022-08-11T12:15:31;24.37;44.32
67249;SHT31;54162;54.300;18.592;2022-08-11T12:17:59;24.27;44.53
67249;SHT31;54162;54.300;18.592;2022-08-11T12:20:26;24.40;46.10
67249;SHT31;54162;54.300;18.592;2022-08-11T12:22:54;24.57;46.40
67249;SHT31;54162;54.300;18.592;2022-08-11T12:25:39;24.92;45.28
67249;SHT31;54162;54.300;18.592;2022-08-11T12:28:24;24.80;45.51
67249;SHT31;54162;54.300;18.592;2022-08-11T12:30:50;24.47;45.86
67249;SHT31;54162;54.300;18.592;2022-08-11T12:33:18;24.13;48.21
67249;SHT31;54162;54.300;18.592;2022-08-11T12:35:45;24.30;46.07
67249;SHT31;54162;54.300;18.592;2022-08-11T12:38:11;23.90;46.37
67249;SHT31;54162;54.300;18.592;2022-08-11T12:40:38;23.95;47.35
67249;SHT31;54162;54.300;18.592;2022-08-11T12:43:27;23.85;46.75
67249;SHT31;54162;54.300;18.592;2022-08-11T12:46:17;24.54;45.52
67249;SHT31;54162;54.300;18.592;2022-08-11T12:48:46;24.05;46.68
67249;SHT31;54162;54.300;18.592;2022-08-11T12:51:34;23.51;48.46
67249;SHT31;54162;54.300;18.592;2022-08-11T12:54:25;23.79;46.57
67249;SHT31;54162;54.300;18.592;2022-08-11T13:00:08;23.90;43.54
67249;SHT31;54162;54.300;18.592;2022-08-11T13:02:53;23.90;45.38
67249;SHT31;54162;54.300;18.592;2022-08-11T13:05:40;24.04;45.79
67249;SHT31;54162;54.300;18.592;2022-08-11T13:08:06;24.10;45.24
67249;SHT31;54162;54.300;18.592;2022-08-11T13:10:33;23.81;44.93
67249;SHT31;54162;54.300;18.592;2022-08-11T13:13:18;24.15;45.38
67249;SHT31;54162;54.300;18.592;2022-08-11T13:15:47;23.78;45.27
67249;SHT31;54162;54.300;18.592;2022-08-11T13:18:19;24.10;46.77
67249;SHT31;54162;54.300;18.592;2022-08-11T13:20:48;24.49;45.65
67249;SHT31;54162;54.300;18.592;2022-08-11T13:23:14;24.37;46.55
67249;SHT31;54162;54.300;18.592;2022-08-11T13:25:40;24.52;45.46
67249;SHT31;54162;54.300;18.592;2022-08-11T13:28:08;23.88;46.03
67249;SHT31;54162;54.300;18.592;2022-08-11T13:30:37;23.74;46.87
67249;SHT31;54162;54.300;18.592;2022-08-11T13:33:22;23.68;47.26
67249;SHT31;54162;54.300;18.592;2022-08-11T13:35:51;23.88;48.10
67249;SHT31;54162;54.300;18.592;2022-08-11T13:38:19;23.60;47.80
67249;SHT31;54162;54.300;18.592;2022-08-11T13:40:47;24.22;47.58
67249;SHT31;54162;54.300;18.592;2022-08-11T13:43:13;23.81;46.47
67249;SHT31;54162;54.300;18.592;2022-08-11T13:45:40;23.30;47.73
67249;SHT31;54162;54.300;18.592;2022-08-11T13:48:08;23.55;48.76
67249;SHT31;54162;54.300;18.592;2022-08-11T13:50:34;23.53;47.66
67249;SHT31;54162;54.300;18.592;2022-08-11T13:53:21;23.20;48.61
67249;SHT31;54162;54.300;18.592;2022-08-11T13:55:47;23.16;48.78
67249;SHT31;54162;54.300;18.592;2022-08-11T13:58:14;23.47;50.05
67249;SHT31;54162;54.300;18.592;2022-08-11T14:00:43;23.10;50.39
67249;SHT31;54162;54.300;18.592;2022-08-11T14:03:11;23.09;50.62
67249;SHT31;54162;54.300;18.592;2022-08-11T14:05:43;23.12;50.98
67249;SHT31;54162;54.300;18.592;2022-08-11T14:08:13;22.91;51.40
67249;SHT31;54162;54.300;18.592;2022-08-11T14:10:40;23.02;51.56
67249;SHT31;54162;54.300;18.592;2022-08-11T14:13:15;23.17;51.77
67249;SHT31;54162;54.300;18.592;2022-08-11T14:16:07;22.79;51.64
67249;SHT31;54162;54.300;18.592;2022-08-11T14:18:39;22.99;52.44
67249;SHT31;54162;54.300;18.592;2022-08-11T14:21:08;22.92;52.76
67249;SHT31;54162;54.300;18.592;2022-08-11T14:23:56;23.27;52.65
67249;SHT31;54162;54.300;18.592;2022-08-11T14:26:24;23.27;52.12
67249;SHT31;54162;54.300;18.592;2022-08-11T14:31:21;23.27;52.37
67249;SHT31;54162;54.300;18.592;2022-08-11T14:33:48;23.04;52.93
67249;SHT31;54162;54.300;18.592;2022-08-11T14:36:15;22.92;52.72
67249;SHT31;54162;54.300;18.592;2022-08-11T14:38:41;23.09;53.15
67249;SHT31;54162;54.300;18.592;2022-08-11T14:41:08;23.27;52.64
67249;SHT31;54162;54.300;18.592;2022-08-11T14:43:55;23.33;53.57
67249;SHT31;54162;54.300;18.592;2022-08-11T14:46:40;23.28;53.66
67249;SHT31;54162;54.300;18.592;2022-08-11T14:49:26;23.04;53.45
67249;SHT31;54162;54.300;18.592;2022-08-11T14:51:52;23.07;54.75
67249;SHT31;54162;54.300;18.592;2022-08-11T14:54:27;22.86;55.35
67249;SHT31;54162;54.300;18.592;2022-08-11T14:57:12;22.82;56.22
67249;SHT31;54162;54.300;18.592;2022-08-11T14:59:38;22.72;56.60
67249;SHT31;54162;54.300;18.592;2022-08-11T15:02:04;22.85;55.39
67249;SHT31;54162;54.300;18.592;2022-08-11T15:04:51;23.00;56.04
67249;SHT31;54162;54.300;18.592;2022-08-11T15:07:18;22.81;55.83
67249;SHT31;54162;54.300;18.592;2022-08-11T15:09:58;22.68;56.76
67249;SHT31;54162;54.300;18.592;2022-08-11T15:12:24;22.56;56.20
67249;SHT31;54162;54.300;18.592;2022-08-11T15:14:50;22.43;57.53
67249;SHT31;54162;54.300;18.592;2022-08-11T15:17:37;22.54;56.26
67249;SHT31;54162;54.300;18.592;2022-08-11T15:20:07;22.38;57.74
67249;SHT31;54162;54.300;18.592;2022-08-11T15:22:52;22.24;58.38
67249;SHT31;54162;54.300;18.592;2022-08-11T15:25:37;22.34;58.47
67249;SHT31;54162;54.300;18.592;2022-08-11T15:28:05;22.41;58.27
67249;SHT31;54162;54.300;18.592;2022-08-11T15:30:53;22.59;58.91
67249;SHT31;54162;54.300;18.592;2022-08-11T15:33:39;22.18;59.37
67249;SHT31;54162;54.300;18.592;2022-08-11T15:36:24;22.21;57.16
67249;SHT31;54162;54.300;18.592;2022-08-11T15:39:31;22.41;60.00
67249;SHT31;54162;54.300;18.592;2022-08-11T15:42:12;22.34;60.15
67249;SHT31;54162;54.300;18.592;2022-08-11T15:44:59;22.20;59.61
67249;SHT31;54162;54.300;18.592;2022-08-11T15:47:55;22.06;60.70
67249;SHT31;54162;54.300;18.592;2022-08-11T15:50:26;21.93;60.84
67249;SHT31;54162;54.300;18.592;2022-08-11T15:53:08;21.92;61.72
67249;SHT31;54162;54.300;18.592;2022-08-11T15:55:36;21.90;61.12
67249;SHT31;54162;54.300;18.592;2022-08-11T15:58:06;21.86;61.24
67249;SHT31;54162;54.300;18.592;2022-08-11T16:00:52;21.85;61.01
67249;SHT31;54162;54.300;18.592;2022-08-11T16:03:50;21.87;60.33
67249;SHT31;54162;54.300;18.592;2022-08-11T16:06:52;21.66;60.62
67249;SHT31;54162;54.300;18.592;2022-08-11T16:09:25;21.63;59.91
67249;SHT31;54162;54.300;18.592;2022-08-11T16:11:53;21.73;58.05
67249;SHT31;54162;54.300;18.592;2022-08-11T16:14:21;21.49;58.68
67249;SHT31;54162;54.300;18.592;2022-08-11T16:17:06;21.53;59.08
67249;SHT31;54162;54.300;18.592;2022-08-11T16:19:35;21.55;58.55
67249;SHT31;54162;54.300;18.592;2022-08-11T16:22:08;21.46;57.61
67249;SHT31;54162;54.300;18.592;2022-08-11T16:24:40;21.56;56.69
67249;SHT31;54162;54.300;18.592;2022-08-11T16:27:10;21.63;58.89
67249;SHT31;54162;54.300;18.592;2022-08-11T16:29:40;21.45;57.62
67249;SHT31;54162;54.300;18.592;2022-08-11T16:32:15;21.27;59.24
67249;SHT31;54162;54.300;18.592;2022-08-11T16:34:43;21.22;59.00
67249;SHT31;54162;54.300;18.592;2022-08-11T16:37:31;21.11;58.41
67249;SHT31;54162;54.300;18.592;2022-08-11T16:40:16;21.04;60.52
67249;SHT31;54162;54.300;18.592;2022-08-11T16:42:45;21.11;61.10
67249;SHT31;54162;54.300;18.592;2022-08-11T16:45:30;21.00;62.28
67249;SHT31;54162;54.300;18.592;2022-08-11T16:48:14;20.90;61.07
67249;SHT31;54162;54.300;18.592;2022-08-11T16:50:40;21.01;62.23
67249;SHT31;54162;54.300;18.592;2022-08-11T16:53:06;20.92;62.92
67249;SHT31;54162;54.300;18.592;2022-08-11T16:55:33;20.83;64.07
67249;SHT31;54162;54.300;18.592;2022-08-11T16:57:59;20.80;64.08
67249;SHT31;54162;54.300;18.592;2022-08-11T17:00:44;20.74;65.02
67249;SHT31;54162;54.300;18.592;2022-08-11T17:03:11;20.66;63.52
67249;SHT31;54162;54.300;18.592;2022-08-11T17:05:56;20.60;64.67
67249;SHT31;54162;54.300;18.592;2022-08-11T17:08:47;20.40;66.48
67249;SHT31;54162;54.300;18.592;2022-08-11T17:11:39;20.36;66.19
67249;SHT31;54162;54.300;18.592;2022-08-11T17:14:31;20.40;67.44
67249;SHT31;54162;54.300;18.592;2022-08-11T17:16:59;20.32;68.05
67249;SHT31;54162;54.300;18.592;2022-08-11T17:19:27;20.25;68.08
67249;SHT31;54162;54.300;18.592;2022-08-11T17:21:56;20.22;68.28
67249;SHT31;54162;54.300;18.592;2022-08-11T17:24:43;20.06;69.32
67249;SHT31;54162;54.300;18.592;2022-08-11T17:27:11;19.98;69.81
67249;SHT31;54162;54.300;18.592;2022-08-11T17:30:02;19.95;69.60
67249;SHT31;54162;54.300;18.592;2022-08-11T17:32:40;19.78;70.47
67249;SHT31;54162;54.300;18.592;2022-08-11T17:35:28;19.67;71.00
67249;SHT31;54162;54.300;18.592;2022-08-11T17:38:15;19.67;71.18
67249;SHT31;54162;54.300;18.592;2022-08-11T17:40:47;19.58;71.82
67249;SHT31;54162;54.300;18.592;2022-08-11T17:43:32;19.58;71.68
67249;SHT31;54162;54.300;18.592;2022-08-11T17:46:17;19.34;72.27
67249;SHT31;54162;54.300;18.592;2022-08-11T17:49:07;19.29;72.34
67249;SHT31;54162;54.300;18.592;2022-08-11T17:51:34;19.23;72.65
67249;SHT31;54162;54.300;18.592;2022-08-11T17:54:20;19.16;73.12
67249;SHT31;54162;54.300;18.592;2022-08-11T17:57:05;19.05;73.60
67249;SHT31;54162;54.300;18.592;2022-08-11T17:59:51;18.88;74.23
67249;SHT31;54162;54.300;18.592;2022-08-11T18:02:21;18.92;73.97
67249;SHT31;54162;54.300;18.592;2022-08-11T18:05:07;18.81;74.47
67249;SHT31;54162;54.300;18.592;2022-08-11T18:07:34;18.71;75.00
67249;SHT31;54162;54.300;18.592;2022-08-11T18:10:19;18.72;75.54
67249;SHT31;54162;54.300;18.592;2022-08-11T18:13:04;18.62;76.02
67249;SHT31;54162;54.300;18.592;2022-08-11T18:15:49;18.54;76.84
67249;SHT31;54162;54.300;18.592;2022-08-11T18:18:34;18.48;77.34
67249;SHT31;54162;54.300;18.592;2022-08-11T18:21:20;18.48;77.44
67249;SHT31;54162;54.300;18.592;2022-08-11T18:24:08;18.48;77.80
67249;SHT31;54162;54.300;18.592;2022-08-11T18:26:54;18.37;78.04
67249;SHT31;54162;54.300;18.592;2022-08-11T18:29:41;18.34;78.57
67249;SHT31;54162;54.300;18.592;2022-08-11T18:32:27;18.34;78.53
67249;SHT31;54162;54.300;18.592;2022-08-11T18:35:13;18.34;78.60
67249;SHT31;54162;54.300;18.592;2022-08-11T18:38:00;18.16;79.09
67249;SHT31;54162;54.300;18.592;2022-08-11T18:40:46;18.00;79.61
67249;SHT31;54162;54.300;18.592;2022-08-11T18:43:31;17.89;80.26
67249;SHT31;54162;54.300;18.592;2022-08-11T18:46:18;17.90;80.40
67249;SHT31;54162;54.300;18.592;2022-08-11T18:49:13;17.72;80.96
67249;SHT31;54162;54.300;18.592;2022-08-11T18:51:59;17.56;81.38
67249;SHT31;54162;54.300;18.592;2022-08-11T18:54:45;17.42;81.85
67249;SHT31;54162;54.300;18.592;2022-08-11T18:57:32;17.36;82.26
67249;SHT31;54162;54.300;18.592;2022-08-11T19:00:17;17.21;82.62
67249;SHT31;54162;54.300;18.592;2022-08-11T19:03:03;17.28;82.84
67249;SHT31;54162;54.300;18.592;2022-08-11T19:05:48;17.21;82.82
67249;SHT31;54162;54.300;18.592;2022-08-11T19:08:40;17.16;83.18
67249;SHT31;54162;54.300;18.592;2022-08-11T19:11:27;17.13;83.51
67249;SHT31;54162;54.300;18.592;2022-08-11T19:14:13;17.08;83.43
67249;SHT31;54162;54.300;18.592;2022-08-11T19:16:59;17.08;83.42
67249;SHT31;54162;54.300;18.592;2022-08-11T19:19:44;17.07;83.49
67249;SHT31;54162;54.300;18.592;2022-08-11T19:22:29;17.07;83.60
67249;SHT31;54162;54.300;18.592;2022-08-11T19:25:15;16.99;83.64
67249;SHT31;54162;54.300;18.592;2022-08-11T19:28:03;16.91;84.10
67249;SHT31;54162;54.300;18.592;2022-08-11T19:30:49;16.76;84.26
67249;SHT31;54162;54.300;18.592;2022-08-11T19:33:35;16.65;84.81
67249;SHT31;54162;54.300;18.592;2022-08-11T19:36:21;16.59;84.91
67249;SHT31;54162;54.300;18.592;2022-08-11T19:39:06;16.63;85.05
67249;SHT31;54162;54.300;18.592;2022-08-11T19:41:52;16.77;84.71
67249;SHT31;54162;54.300;18.592;2022-08-11T19:44:38;16.83;84.51
67249;SHT31;54162;54.300;18.592;2022-08-11T19:47:23;16.94;84.15
67249;SHT31;54162;54.300;18.592;2022-08-11T19:50:07;16.87;84.31
67249;SHT31;54162;54.300;18.592;2022-08-11T19:52:52;16.96;84.05
67249;SHT31;54162;54.300;18.592;2022-08-11T19:55:36;16.90;84.13
67249;SHT31;54162;54.300;18.592;2022-08-11T19:58:21;16.81;84.54
67249;SHT31;54162;54.300;18.592;2022-08-11T20:01:05;16.75;84.80
67249;SHT31;54162;54.300;18.592;2022-08-11T20:03:49;16.75;84.83